sensor_id;sensor_type;location;lat;lon;timestamp;P1;durP1;ratioP1;P2;durP2;ratioP2
59308;SDS011;48433;53.016;-2.260;2023-06-26T00:00:04;5.95;;;1.90;;
59308;SDS011;48433;53.016;-2.260;2023-06-26T00:02:32;6.85;;;1.45;;
59308;SDS011;48433;53.016;-2.260;2023-06-26T00:05:00;7.97;;;2.10;;
59308;SDS011;48433;53.016;-2.260;2023-06-26T00:07:31;6.82;;;1.85;;
59308;SDS011;48433;53.016;-2.260;2023-06-26T00:10:01;5.85;;;1.58;;
59308;SDS011;48433;53.016;-2.260;2023-06-26T00:12:31;9.35;;;2.35;;
59308;SDS011;48433;53.016;-2.260;2023-06-26T00:15:00;7.13;;;1.88;;
59308;SDS011;48433;53.016;-2.260;2023-06-26T00:17:30;10.18;;;1.70;;
59308;SDS011;48433;53.016;-2.260;2023-06-26T00:20:05;7.60;;;1.95;;
59308;SDS011;48433;53.016;-2.260;2023-06-26T00:22:38;7.97;;;2.00;;
59308;SDS011;48433;53.016;-2.260;2023-06-26T00:25:08;9.77;;;2.65;;
59308;SDS011;48433;53.016;-2.260;2023-06-26T00:27:36;8.75;;;2.33;;
59308;SDS011;48433;53.016;-2.260;2023-06-26T00:30:04;6.88;;;2.00;;
59308;SDS011;48433;53.016;-2.260;2023-06-26T00:32:32;9.75;;;2.03;;
59308;SDS011;48433;53.016;-2.260;2023-06-26T00:35:02;9.02;;;2.25;;
59308;SDS011;48433;53.016;-2.260;2023-06-26T00:37:31;12.65;;;2.88;;
59308;SDS011;48433;53.016;-2.260;2023-06-26T00:39:59;7.97;;;2.50;;
59308;SDS011;48433;53.016;-2.260;2023-06-26T00:42:28;10.88;;;2.55;;
59308;SDS011;48433;53.016;-2.260;2023-06-26T00:44:56;8.93;;;2.45;;
59308;SDS011;48433;53.016;-2.260;2023-06-26T00:47:24;13.52;;;2.60;;
59308;SDS011;48433;53.016;-2.260;2023-06-26T00:49:52;10.88;;;2.30;;
59308;SDS011;48433;53.016;-2.260;2023-06-26T00:52:22;6.95;;;2.72;;
59308;SDS011;48433;53.016;-2.260;2023-06-26T00:54:51;7.20;;;2.63;;
59308;SDS011;48433;53.016;-2.260;2023-06-26T00:57:19;10.48;;;3.20;;
59308;SDS011;48433;53.016;-2.260;2023-06-26T00:59:48;9.40;;;2.65;;
59308;SDS011;48433;53.016;-2.260;2023-06-26T01:02:20;11.07;;;3.08;;
59308;SDS011;48433;53.016;-2.260;2023-06-26T01:04:50;10.82;;;3.58;;
59308;SDS011;48433;53.016;-2.260;2023-06-26T01:07:19;7.05;;;2.28;;
59308;SDS011;48433;53.016;-2.260;2023-06-26T01:09:48;8.88;;;2.70;;
59308;SDS011;48433;53.016;-2.260;2023-06-26T01:12:17;8.15;;;2.55;;
59308;SDS011;48433;53.016;-2.260;2023-06-26T01:14:48;8.45;;;2.88;;
59308;SDS011;48433;53.016;-2.260;2023-06-26T01:17:17;7.32;;;2.72;;
59308;SDS011;48433;53.016;-2.260;2023-06-26T01:19:45;10.88;;;2.90;;
59308;SDS011;48433;53.016;-2.260;2023-06-26T01:22:23;11.75;;;3.30;;
59308;SDS011;48433;53.016;-2.260;2023-06-26T01:27:38;7.68;;;2.80;;
59308;SDS011;48433;53.016;-2.260;2023-06-26T01:30:07;9.50;;;3.40;;
59308;SDS011;48433;53.016;-2.260;2023-06-26T01:32:35;8.77;;;3.10;;
59308;SDS011;48433;53.016;-2.260;2023-06-26T01:35:05;9.68;;;3.20;;
59308;SDS011;48433;53.016;-2.260;2023-06-26T01:37:35;11.30;;;3.00;;
59308;SDS011;48433;53.016;-2.260;2023-06-26T01:40:03;10.23;;;3.13;;
59308;SDS011;48433;53.016;-2.260;2023-06-26T01:42:33;9.95;;;3.30;;
59308;SDS011;48433;53.016;-2.260;2023-06-26T01:45:02;8.48;;;2.88;;
59308;SDS011;48433;53.016;-2.260;2023-06-26T01:47:44;8.75;;;4.15;;
59308;SDS011;48433;53.016;-2.260;2023-06-26T01:50:17;9.23;;;2.95;;
59308;SDS011;48433;53.016;-2.260;2023-06-26T01:55:42;8.75;;;3.00;;
59308;SDS011;48433;53.016;-2.260;2023-06-26T01:58:16;9.23;;;2.90;;
59308;SDS011;48433;53.016;-2.260;2023-06-26T02:03:15;7.00;;;2.50;;
59308;SDS011;48433;53.016;-2.260;2023-06-26T02:05:43;8.10;;;2.50;;
59308;SDS011;48433;53.016;-2.260;2023-06-26T02:08:13;10.80;;;3.00;;
59308;SDS011;48433;53.016;-2.260;2023-06-26T02:10:48;9.85;;;2.78;;
59308;SDS011;48433;53.016;-2.260;2023-06-26T02:13:16;8.10;;;2.47;;
59308;SDS011;48433;53.016;-2.260;2023-06-26T02:15:44;9.85;;;2.58;;
59308;SDS011;48433;53.016;-2.260;2023-06-26T02:18:11;9.95;;;2.97;;
59308;SDS011;48433;53.016;-2.260;2023-06-26T02:20:39;8.77;;;3.15;;
59308;SDS011;48433;53.016;-2.260;2023-06-26T02:23:07;6.50;;;2.63;;
59308;SDS011;48433;53.016;-2.260;2023-06-26T02:25:35;10.57;;;2.85;;
59308;SDS011;48433;53.016;-2.260;2023-06-26T02:28:03;10.10;;;3.13;;
59308;SDS011;48433;53.016;-2.260;2023-06-26T02:30:30;6.32;;;2.80;;
59308;SDS011;48433;53.016;-2.260;2023-06-26T02:32:59;8.77;;;2.67;;
59308;SDS011;48433;53.016;-2.260;2023-06-26T02:35:27;10.38;;;3.00;;
59308;SDS011;48433;53.016;-2.260;2023-06-26T02:37:54;8.63;;;2.95;;
59308;SDS011;48433;53.016;-2.260;2023-06-26T02:40:23;8.20;;;2.85;;
59308;SDS011;48433;53.016;-2.260;2023-06-26T02:42:52;10.13;;;3.03;;
59308;SDS011;48433;53.016;-2.260;2023-06-26T02:45:34;7.65;;;2.42;;
59308;SDS011;48433;53.016;-2.260;2023-06-26T02:48:02;5.10;;;2.42;;
59308;SDS011;48433;53.016;-2.260;2023-06-26T02:50:32;6.32;;;2.53;;
59308;SDS011;48433;53.016;-2.260;2023-06-26T02:53:06;8.18;;;2.53;;
59308;SDS011;48433;53.016;-2.260;2023-06-26T02:55:37;7.22;;;2.25;;
59308;SDS011;48433;53.016;-2.260;2023-06-26T02:58:06;7.90;;;2.55;;
59308;SDS011;48433;53.016;-2.260;2023-06-26T03:00:35;7.82;;;3.30;;
59308;SDS011;48433;53.016;-2.260;2023-06-26T03:03:10;9.07;;;2.92;;
59308;SDS011;48433;53.016;-2.260;2023-06-26T03:05:40;9.20;;;3.55;;
59308;SDS011;48433;53.016;-2.260;2023-06-26T03:08:08;7.93;;;2.33;;
59308;SDS011;48433;53.016;-2.260;2023-06-26T03:10:38;12.63;;;2.50;;
59308;SDS011;48433;53.016;-2.260;2023-06-26T03:13:07;7.82;;;2.40;;
59308;SDS011;48433;53.016;-2.260;2023-06-26T03:15:35;7.72;;;2.30;;
59308;SDS011;48433;53.016;-2.260;2023-06-26T03:18:03;7.60;;;2.42;;
59308;SDS011;48433;53.016;-2.260;2023-06-26T03:20:32;8.25;;;2.65;;
59308;SDS011;48433;53.016;-2.260;2023-06-26T03:23:00;9.00;;;2.67;;
59308;SDS011;48433;53.016;-2.260;2023-06-26T03:25:28;8.93;;;2.30;;
59308;SDS011;48433;53.016;-2.260;2023-06-26T03:28:07;8.25;;;2.78;;
59308;SDS011;48433;53.016;-2.260;2023-06-26T03:30:35;14.15;;;3.33;;
59308;SDS011;48433;53.016;-2.260;2023-06-26T03:33:05;10.98;;;2.63;;
59308;SDS011;48433;53.016;-2.260;2023-06-26T03:35:33;8.75;;;2.97;;
59308;SDS011;48433;53.016;-2.260;2023-06-26T03:38:03;6.65;;;3.05;;
59308;SDS011;48433;53.016;-2.260;2023-06-26T03:40:32;6.22;;;2.70;;
59308;SDS011;48433;53.016;-2.260;2023-06-26T03:43:00;6.68;;;2.50;;
59308;SDS011;48433;53.016;-2.260;2023-06-26T03:45:39;5.22;;;2.70;;
59308;SDS011;48433;53.016;-2.260;2023-06-26T03:48:07;12.73;;;3.30;;
59308;SDS011;48433;53.016;-2.260;2023-06-26T03:50:36;9.13;;;3.17;;
59308;SDS011;48433;53.016;-2.260;2023-06-26T03:53:04;9.05;;;2.97;;
59308;SDS011;48433;53.016;-2.260;2023-06-26T03:55:32;7.35;;;2.90;;
59308;SDS011;48433;53.016;-2.260;2023-06-26T03:58:04;7.60;;;2.50;;
59308;SDS011;48433;53.016;-2.260;2023-06-26T04:00:32;7.00;;;2.55;;
59308;SDS011;48433;53.016;-2.260;2023-06-26T04:03:00;7.75;;;2.95;;
59308;SDS011;48433;53.016;-2.260;2023-06-26T04:05:30;7.53;;;2.88;;
59308;SDS011;48433;53.016;-2.260;2023-06-26T04:07:58;8.20;;;2.85;;
59308;SDS011;48433;53.016;-2.260;2023-06-26T04:10:27;9.80;;;3.08;;
59308;SDS011;48433;53.016;-2.260;2023-06-26T04:12:54;9.30;;;2.17;;
59308;SDS011;48433;53.016;-2.260;2023-06-26T04:15:23;7.88;;;2.85;;
59308;SDS011;48433;53.016;-2.260;2023-06-26T04:17:51;6.95;;;2.20;;
59308;SDS011;48433;53.016;-2.260;2023-06-26T04:20:20;7.47;;;2.22;;
59308;SDS011;48433;53.016;-2.260;2023-06-26T04:22:47;8.23;;;2.55;;
59308;SDS011;48433;53.016;-2.260;2023-06-26T04:25:15;7.70;;;2.55;;
59308;SDS011;48433;53.016;-2.260;2023-06-26T04:27:43;5.63;;;2.67;;
59308;SDS011;48433;53.016;-2.260;2023-06-26T04:30:12;6.68;;;2.50;;
59308;SDS011;48433;53.016;-2.260;2023-06-26T04:32:40;8.57;;;2.38;;
59308;SDS011;48433;53.016;-2.260;2023-06-26T04:35:08;5.57;;;2.13;;
59308;SDS011;48433;53.016;-2.260;2023-06-26T04:37:37;8.57;;;2.50;;
59308;SDS011;48433;53.016;-2.260;2023-06-26T04:40:06;6.85;;;2.33;;
59308;SDS011;48433;53.016;-2.260;2023-06-26T04:42:36;9.38;;;2.63;;
59308;SDS011;48433;53.016;-2.260;2023-06-26T04:45:05;6.20;;;2.53;;
59308;SDS011;48433;53.016;-2.260;2023-06-26T04:47:33;6.63;;;2.72;;
59308;SDS011;48433;53.016;-2.260;2023-06-26T04:50:01;6.07;;;2.10;;
59308;SDS011;48433;53.016;-2.260;2023-06-26T04:52:29;8.00;;;2.47;;
59308;SDS011;48433;53.016;-2.260;2023-06-26T04:54:57;8.23;;;2.47;;
59308;SDS011;48433;53.016;-2.260;2023-06-26T04:57:24;8.07;;;2.72;;
59308;SDS011;48433;53.016;-2.260;2023-06-26T04:59:52;6.43;;;2.38;;
59308;SDS011;48433;53.016;-2.260;2023-06-26T05:02:20;7.43;;;2.58;;
59308;SDS011;48433;53.016;-2.260;2023-06-26T05:04:48;6.53;;;1.95;;
59308;SDS011;48433;53.016;-2.260;2023-06-26T05:07:16;6.47;;;1.92;;
59308;SDS011;48433;53.016;-2.260;2023-06-26T05:09:44;6.78;;;2.25;;
59308;SDS011;48433;53.016;-2.260;2023-06-26T05:12:12;4.40;;;1.92;;
59308;SDS011;48433;53.016;-2.260;2023-06-26T05:14:40;6.75;;;2.13;;
59308;SDS011;48433;53.016;-2.260;2023-06-26T05:17:08;7.72;;;2.22;;
59308;SDS011;48433;53.016;-2.260;2023-06-26T05:19:36;8.02;;;2.22;;
59308;SDS011;48433;53.016;-2.260;2023-06-26T05:22:04;8.93;;;2.28;;
59308;SDS011;48433;53.016;-2.260;2023-06-26T05:24:37;8.52;;;2.30;;
59308;SDS011;48433;53.016;-2.260;2023-06-26T05:27:06;11.35;;;2.67;;
59308;SDS011;48433;53.016;-2.260;2023-06-26T05:29:34;7.28;;;2.58;;
59308;SDS011;48433;53.016;-2.260;2023-06-26T05:32:05;6.65;;;1.83;;
59308;SDS011;48433;53.016;-2.260;2023-06-26T05:34:33;6.72;;;2.25;;
59308;SDS011;48433;53.016;-2.260;2023-06-26T05:37:01;6.45;;;2.00;;
59308;SDS011;48433;53.016;-2.260;2023-06-26T05:39:29;7.63;;;2.15;;
59308;SDS011;48433;53.016;-2.260;2023-06-26T05:41:57;8.30;;;2.40;;
59308;SDS011;48433;53.016;-2.260;2023-06-26T05:44:25;7.65;;;2.33;;
59308;SDS011;48433;53.016;-2.260;2023-06-26T05:46:52;9.00;;;2.97;;
59308;SDS011;48433;53.016;-2.260;2023-06-26T05:49:20;8.43;;;2.35;;
59308;SDS011;48433;53.016;-2.260;2023-06-26T05:51:48;7.68;;;3.13;;
59308;SDS011;48433;53.016;-2.260;2023-06-26T05:54:16;7.47;;;2.30;;
59308;SDS011;48433;53.016;-2.260;2023-06-26T05:56:43;7.18;;;2.30;;
59308;SDS011;48433;53.016;-2.260;2023-06-26T05:59:12;7.55;;;2.58;;
59308;SDS011;48433;53.016;-2.260;2023-06-26T06:01:42;6.35;;;2.50;;
59308;SDS011;48433;53.016;-2.260;2023-06-26T06:04:10;6.68;;;2.28;;
59308;SDS011;48433;53.016;-2.260;2023-06-26T06:06:39;8.40;;;2.30;;
59308;SDS011;48433;53.016;-2.260;2023-06-26T06:09:12;7.95;;;2.40;;
59308;SDS011;48433;53.016;-2.260;2023-06-26T06:11:40;11.23;;;2.80;;
59308;SDS011;48433;53.016;-2.260;2023-06-26T06:14:09;7.97;;;2.00;;
59308;SDS011;48433;53.016;-2.260;2023-06-26T06:16:37;5.35;;;2.10;;
59308;SDS011;48433;53.016;-2.260;2023-06-26T06:19:06;7.28;;;2.47;;
59308;SDS011;48433;53.016;-2.260;2023-06-26T06:21:34;6.32;;;2.60;;
59308;SDS011;48433;53.016;-2.260;2023-06-26T06:24:02;6.80;;;2.20;;
59308;SDS011;48433;53.016;-2.260;2023-06-26T06:26:30;9.52;;;2.83;;
59308;SDS011;48433;53.016;-2.260;2023-06-26T06:28:58;6.82;;;2.30;;
59308;SDS011;48433;53.016;-2.260;2023-06-26T06:31:26;10.50;;;2.58;;
59308;SDS011;48433;53.016;-2.260;2023-06-26T06:33:58;5.97;;;2.00;;
59308;SDS011;48433;53.016;-2.260;2023-06-26T06:36:27;7.82;;;2.30;;
59308;SDS011;48433;53.016;-2.260;2023-06-26T06:38:55;10.05;;;2.05;;
59308;SDS011;48433;53.016;-2.260;2023-06-26T06:41:25;7.28;;;2.20;;
59308;SDS011;48433;53.016;-2.260;2023-06-26T06:43:59;8.80;;;2.50;;
59308;SDS011;48433;53.016;-2.260;2023-06-26T06:46:30;6.18;;;1.95;;
59308;SDS011;48433;53.016;-2.260;2023-06-26T06:48:58;7.18;;;1.98;;
59308;SDS011;48433;53.016;-2.260;2023-06-26T06:51:27;6.57;;;1.98;;
59308;SDS011;48433;53.016;-2.260;2023-06-26T06:53:54;10.10;;;2.22;;
59308;SDS011;48433;53.016;-2.260;2023-06-26T06:56:22;6.35;;;1.58;;
59308;SDS011;48433;53.016;-2.260;2023-06-26T06:58:50;11.60;;;2.45;;
59308;SDS011;48433;53.016;-2.260;2023-06-26T07:01:18;8.00;;;2.22;;
59308;SDS011;48433;53.016;-2.260;2023-06-26T07:03:45;7.35;;;1.80;;
59308;SDS011;48433;53.016;-2.260;2023-06-26T07:06:13;6.70;;;2.25;;
59308;SDS011;48433;53.016;-2.260;2023-06-26T07:08:41;7.90;;;1.80;;
59308;SDS011;48433;53.016;-2.260;2023-06-26T07:11:09;6.07;;;1.83;;
59308;SDS011;48433;53.016;-2.260;2023-06-26T07:13:36;6.57;;;1.88;;
59308;SDS011;48433;53.016;-2.260;2023-06-26T07:16:04;10.90;;;2.15;;
59308;SDS011;48433;53.016;-2.260;2023-06-26T07:18:32;8.48;;;2.80;;
59308;SDS011;48433;53.016;-2.260;2023-06-26T07:20:59;11.50;;;1.83;;
59308;SDS011;48433;53.016;-2.260;2023-06-26T07:23:27;6.95;;;2.03;;
59308;SDS011;48433;53.016;-2.260;2023-06-26T07:25:55;6.18;;;2.20;;
59308;SDS011;48433;53.016;-2.260;2023-06-26T07:28:22;7.15;;;2.05;;
59308;SDS011;48433;53.016;-2.260;2023-06-26T07:30:50;8.48;;;2.40;;
59308;SDS011;48433;53.016;-2.260;2023-06-26T07:33:18;7.03;;;1.83;;
59308;SDS011;48433;53.016;-2.260;2023-06-26T07:35:47;7.72;;;2.38;;
59308;SDS011;48433;53.016;-2.260;2023-06-26T07:38:15;6.55;;;2.15;;
59308;SDS011;48433;53.016;-2.260;2023-06-26T07:40:43;7.10;;;2.30;;
59308;SDS011;48433;53.016;-2.260;2023-06-26T07:43:10;7.70;;;1.80;;
59308;SDS011;48433;53.016;-2.260;2023-06-26T07:45:38;8.32;;;2.03;;
59308;SDS011;48433;53.016;-2.260;2023-06-26T07:48:06;7.63;;;2.03;;
59308;SDS011;48433;53.016;-2.260;2023-06-26T07:50:34;10.23;;;2.17;;
59308;SDS011;48433;53.016;-2.260;2023-06-26T07:53:03;6.50;;;1.60;;
59308;SDS011;48433;53.016;-2.260;2023-06-26T07:55:32;11.88;;;2.10;;
59308;SDS011;48433;53.016;-2.260;2023-06-26T07:58:00;7.18;;;2.17;;
59308;SDS011;48433;53.016;-2.260;2023-06-26T08:00:28;5.45;;;1.80;;
59308;SDS011;48433;53.016;-2.260;2023-06-26T08:02:56;6.00;;;1.67;;
59308;SDS011;48433;53.016;-2.260;2023-06-26T08:05:24;12.07;;;3.25;;
59308;SDS011;48433;53.016;-2.260;2023-06-26T08:07:52;4.80;;;1.38;;
59308;SDS011;48433;53.016;-2.260;2023-06-26T08:10:19;12.63;;;1.90;;
59308;SDS011;48433;53.016;-2.260;2023-06-26T08:12:47;8.38;;;1.70;;
59308;SDS011;48433;53.016;-2.260;2023-06-26T08:15:17;7.28;;;1.65;;
59308;SDS011;48433;53.016;-2.260;2023-06-26T08:17:45;8.38;;;2.38;;
59308;SDS011;48433;53.016;-2.260;2023-06-26T08:20:12;6.88;;;1.83;;
59308;SDS011;48433;53.016;-2.260;2023-06-26T08:22:40;8.95;;;1.77;;
59308;SDS011;48433;53.016;-2.260;2023-06-26T08:25:08;8.38;;;1.70;;
59308;SDS011;48433;53.016;-2.260;2023-06-26T08:27:36;5.25;;;1.75;;
59308;SDS011;48433;53.016;-2.260;2023-06-26T08:30:03;8.40;;;2.05;;
59308;SDS011;48433;53.016;-2.260;2023-06-26T08:32:32;9.88;;;2.00;;
59308;SDS011;48433;53.016;-2.260;2023-06-26T08:34:59;8.57;;;1.65;;
59308;SDS011;48433;53.016;-2.260;2023-06-26T08:37:27;7.07;;;1.70;;
59308;SDS011;48433;53.016;-2.260;2023-06-26T08:39:55;11.88;;;3.03;;
59308;SDS011;48433;53.016;-2.260;2023-06-26T08:42:22;9.65;;;1.65;;
59308;SDS011;48433;53.016;-2.260;2023-06-26T08:44:50;8.13;;;1.83;;
59308;SDS011;48433;53.016;-2.260;2023-06-26T08:47:30;6.80;;;1.50;;
59308;SDS011;48433;53.016;-2.260;2023-06-26T08:50:08;4.57;;;1.60;;
59308;SDS011;48433;53.016;-2.260;2023-06-26T08:55:20;6.68;;;1.35;;
59308;SDS011;48433;53.016;-2.260;2023-06-26T08:57:51;7.20;;;1.77;;
59308;SDS011;48433;53.016;-2.260;2023-06-26T09:00:20;8.10;;;1.48;;
59308;SDS011;48433;53.016;-2.260;2023-06-26T09:02:48;9.88;;;1.80;;
59308;SDS011;48433;53.016;-2.260;2023-06-26T09:05:16;6.13;;;1.50;;
59308;SDS011;48433;53.016;-2.260;2023-06-26T09:07:44;4.35;;;1.50;;
59308;SDS011;48433;53.016;-2.260;2023-06-26T09:10:12;6.85;;;1.73;;
59308;SDS011;48433;53.016;-2.260;2023-06-26T09:12:39;10.02;;;1.95;;
59308;SDS011;48433;53.016;-2.260;2023-06-26T09:15:07;9.32;;;1.75;;
59308;SDS011;48433;53.016;-2.260;2023-06-26T09:17:39;7.30;;;1.85;;
59308;SDS011;48433;53.016;-2.260;2023-06-26T09:20:10;9.10;;;2.13;;
59308;SDS011;48433;53.016;-2.260;2023-06-26T09:22:42;7.72;;;1.67;;
59308;SDS011;48433;53.016;-2.260;2023-06-26T09:25:14;6.18;;;1.45;;
59308;SDS011;48433;53.016;-2.260;2023-06-26T09:27:42;4.72;;;1.40;;
59308;SDS011;48433;53.016;-2.260;2023-06-26T09:30:11;6.72;;;1.50;;
59308;SDS011;48433;53.016;-2.260;2023-06-26T09:32:39;9.80;;;1.83;;
59308;SDS011;48433;53.016;-2.260;2023-06-26T09:35:07;7.30;;;2.13;;
59308;SDS011;48433;53.016;-2.260;2023-06-26T09:37:35;7.75;;;1.42;;
59308;SDS011;48433;53.016;-2.260;2023-06-26T09:40:04;7.80;;;1.80;;
59308;SDS011;48433;53.016;-2.260;2023-06-26T09:42:32;6.00;;;1.60;;
59308;SDS011;48433;53.016;-2.260;2023-06-26T09:45:00;6.63;;;1.80;;
59308;SDS011;48433;53.016;-2.260;2023-06-26T09:47:30;7.65;;;1.85;;
59308;SDS011;48433;53.016;-2.260;2023-06-26T09:50:04;6.75;;;1.55;;
59308;SDS011;48433;53.016;-2.260;2023-06-26T09:52:32;3.88;;;1.33;;
59308;SDS011;48433;53.016;-2.260;2023-06-26T09:55:08;5.93;;;1.67;;
59308;SDS011;48433;53.016;-2.260;2023-06-26T09:57:37;6.28;;;1.52;;
59308;SDS011;48433;53.016;-2.260;2023-06-26T10:00:05;3.25;;;1.13;;
59308;SDS011;48433;53.016;-2.260;2023-06-26T10:02:41;4.05;;;1.20;;
59308;SDS011;48433;53.016;-2.260;2023-06-26T10:05:09;4.45;;;0.90;;
59308;SDS011;48433;53.016;-2.260;2023-06-26T10:07:37;5.40;;;1.35;;
59308;SDS011;48433;53.016;-2.260;2023-06-26T10:10:06;8.93;;;1.55;;
59308;SDS011;48433;53.016;-2.260;2023-06-26T10:12:35;4.93;;;1.27;;
59308;SDS011;48433;53.016;-2.260;2023-06-26T10:15:03;5.82;;;1.25;;
59308;SDS011;48433;53.016;-2.260;2023-06-26T10:17:34;5.53;;;1.30;;
59308;SDS011;48433;53.016;-2.260;2023-06-26T10:20:03;5.72;;;1.30;;
59308;SDS011;48433;53.016;-2.260;2023-06-26T10:22:44;6.93;;;1.30;;
59308;SDS011;48433;53.016;-2.260;2023-06-26T10:25:17;7.03;;;1.70;;
59308;SDS011;48433;53.016;-2.260;2023-06-26T10:27:48;7.05;;;1.55;;
59308;SDS011;48433;53.016;-2.260;2023-06-26T10:30:20;4.63;;;1.20;;
59308;SDS011;48433;53.016;-2.260;2023-06-26T10:32:51;5.75;;;1.10;;
59308;SDS011;48433;53.016;-2.260;2023-06-26T10:35:20;6.30;;;2.03;;
59308;SDS011;48433;53.016;-2.260;2023-06-26T10:37:49;5.35;;;1.35;;
59308;SDS011;48433;53.016;-2.260;2023-06-26T10:40:21;4.78;;;1.33;;
59308;SDS011;48433;53.016;-2.260;2023-06-26T10:43:05;7.63;;;1.15;;
59308;SDS011;48433;53.016;-2.260;2023-06-26T10:45:36;7.13;;;1.38;;
59308;SDS011;48433;53.016;-2.260;2023-06-26T10:48:04;7.85;;;1.60;;
59308;SDS011;48433;53.016;-2.260;2023-06-26T10:50:32;6.30;;;1.55;;
59308;SDS011;48433;53.016;-2.260;2023-06-26T10:55:36;4.93;;;1.48;;
59308;SDS011;48433;53.016;-2.260;2023-06-26T11:03:42;9.13;;;1.40;;
59308;SDS011;48433;53.016;-2.260;2023-06-26T11:06:15;7.22;;;1.50;;
59308;SDS011;48433;53.016;-2.260;2023-06-26T11:11:14;6.78;;;1.80;;
59308;SDS011;48433;53.016;-2.260;2023-06-26T11:13:42;7.78;;;1.30;;
59308;SDS011;48433;53.016;-2.260;2023-06-26T11:16:11;9.10;;;1.40;;
59308;SDS011;48433;53.016;-2.260;2023-06-26T11:18:39;4.13;;;1.00;;
59308;SDS011;48433;53.016;-2.260;2023-06-26T11:21:08;7.72;;;1.58;;
59308;SDS011;48433;53.016;-2.260;2023-06-26T11:26:13;9.77;;;1.80;;
59308;SDS011;48433;53.016;-2.260;2023-06-26T11:28:51;3.50;;;1.15;;
59308;SDS011;48433;53.016;-2.260;2023-06-26T11:31:29;7.97;;;1.45;;
59308;SDS011;48433;53.016;-2.260;2023-06-26T11:34:02;6.53;;;1.90;;
59308;SDS011;48433;53.016;-2.260;2023-06-26T11:36:31;6.47;;;1.85;;
59308;SDS011;48433;53.016;-2.260;2023-06-26T11:39:04;4.50;;;1.10;;
59308;SDS011;48433;53.016;-2.260;2023-06-26T11:41:33;5.35;;;1.20;;
59308;SDS011;48433;53.016;-2.260;2023-06-26T11:44:04;3.93;;;1.27;;
59308;SDS011;48433;53.016;-2.260;2023-06-26T11:46:34;5.15;;;1.10;;
59308;SDS011;48433;53.016;-2.260;2023-06-26T11:49:03;6.43;;;1.17;;
59308;SDS011;48433;53.016;-2.260;2023-06-26T11:51:32;7.55;;;1.77;;
59308;SDS011;48433;53.016;-2.260;2023-06-26T11:54:00;6.68;;;1.73;;
59308;SDS011;48433;53.016;-2.260;2023-06-26T11:56:32;6.55;;;1.60;;
59308;SDS011;48433;53.016;-2.260;2023-06-26T11:59:01;4.72;;;1.48;;
59308;SDS011;48433;53.016;-2.260;2023-06-26T12:01:30;5.72;;;1.38;;
59308;SDS011;48433;53.016;-2.260;2023-06-26T12:04:01;5.90;;;1.88;;
59308;SDS011;48433;53.016;-2.260;2023-06-26T12:06:37;5.38;;;1.60;;
59308;SDS011;48433;53.016;-2.260;2023-06-26T12:09:07;8.63;;;1.45;;
59308;SDS011;48433;53.016;-2.260;2023-06-26T12:11:38;6.95;;;1.10;;
59308;SDS011;48433;53.016;-2.260;2023-06-26T12:14:11;7.85;;;1.70;;
59308;SDS011;48433;53.016;-2.260;2023-06-26T12:19:12;5.63;;;1.50;;
59308;SDS011;48433;53.016;-2.260;2023-06-26T12:24:14;7.88;;;1.65;;
59308;SDS011;48433;53.016;-2.260;2023-06-26T12:26:43;6.05;;;1.48;;
59308;SDS011;48433;53.016;-2.260;2023-06-26T12:29:14;4.47;;;1.30;;
59308;SDS011;48433;53.016;-2.260;2023-06-26T12:31:45;6.13;;;1.20;;
59308;SDS011;48433;53.016;-2.260;2023-06-26T12:34:19;3.90;;;1.30;;
59308;SDS011;48433;53.016;-2.260;2023-06-26T12:37:06;4.28;;;1.15;;
59308;SDS011;48433;53.016;-2.260;2023-06-26T12:39:48;4.57;;;1.20;;
59308;SDS011;48433;53.016;-2.260;2023-06-26T12:42:20;6.20;;;1.20;;
59308;SDS011;48433;53.016;-2.260;2023-06-26T12:44:52;3.38;;;1.00;;
59308;SDS011;48433;53.016;-2.260;2023-06-26T12:47:24;7.28;;;1.25;;
59308;SDS011;48433;53.016;-2.260;2023-06-26T12:49:54;3.75;;;0.95;;
59308;SDS011;48433;53.016;-2.260;2023-06-26T12:52:23;6.53;;;1.17;;
59308;SDS011;48433;53.016;-2.260;2023-06-26T12:54:52;4.63;;;1.05;;
59308;SDS011;48433;53.016;-2.260;2023-06-26T12:57:21;5.95;;;1.10;;
59308;SDS011;48433;53.016;-2.260;2023-06-26T12:59:49;4.53;;;1.13;;
59308;SDS011;48433;53.016;-2.260;2023-06-26T13:02:17;6.13;;;1.20;;
59308;SDS011;48433;53.016;-2.260;2023-06-26T13:04:46;4.47;;;1.17;;
59308;SDS011;48433;53.016;-2.260;2023-06-26T13:07:14;7.78;;;1.83;;
59308;SDS011;48433;53.016;-2.260;2023-06-26T13:09:42;5.13;;;1.27;;
59308;SDS011;48433;53.016;-2.260;2023-06-26T13:12:12;4.93;;;1.07;;
59308;SDS011;48433;53.016;-2.260;2023-06-26T13:14:40;3.83;;;0.95;;
59308;SDS011;48433;53.016;-2.260;2023-06-26T13:17:08;5.93;;;1.20;;
59308;SDS011;48433;53.016;-2.260;2023-06-26T13:19:36;4.90;;;1.50;;
59308;SDS011;48433;53.016;-2.260;2023-06-26T13:22:04;7.43;;;1.35;;
59308;SDS011;48433;53.016;-2.260;2023-06-26T13:24:33;6.05;;;1.70;;
59308;SDS011;48433;53.016;-2.260;2023-06-26T13:27:01;3.72;;;1.30;;
59308;SDS011;48433;53.016;-2.260;2023-06-26T13:29:29;4.15;;;1.35;;
59308;SDS011;48433;53.016;-2.260;2023-06-26T13:31:57;5.75;;;1.50;;
59308;SDS011;48433;53.016;-2.260;2023-06-26T13:34:27;3.35;;;0.90;;
59308;SDS011;48433;53.016;-2.260;2023-06-26T13:36:55;2.30;;;0.90;;
59308;SDS011;48433;53.016;-2.260;2023-06-26T13:39:23;5.32;;;1.65;;
59308;SDS011;48433;53.016;-2.260;2023-06-26T13:41:52;6.88;;;1.10;;
59308;SDS011;48433;53.016;-2.260;2023-06-26T13:44:19;5.55;;;1.33;;
59308;SDS011;48433;53.016;-2.260;2023-06-26T13:47:02;3.50;;;0.75;;
59308;SDS011;48433;53.016;-2.260;2023-06-26T13:49:30;2.80;;;0.85;;
59308;SDS011;48433;53.016;-2.260;2023-06-26T13:51:59;3.85;;;0.90;;
59308;SDS011;48433;53.016;-2.260;2023-06-26T13:54:27;3.40;;;0.95;;
59308;SDS011;48433;53.016;-2.260;2023-06-26T13:56:55;3.92;;;1.13;;
59308;SDS011;48433;53.016;-2.260;2023-06-26T13:59:23;7.10;;;1.40;;
59308;SDS011;48433;53.016;-2.260;2023-06-26T14:01:52;4.40;;;1.52;;
59308;SDS011;48433;53.016;-2.260;2023-06-26T14:04:20;3.22;;;1.20;;
59308;SDS011;48433;53.016;-2.260;2023-06-26T14:06:49;3.58;;;1.00;;
59308;SDS011;48433;53.016;-2.260;2023-06-26T14:09:17;9.15;;;1.75;;
59308;SDS011;48433;53.016;-2.260;2023-06-26T14:11:45;3.47;;;1.20;;
59308;SDS011;48433;53.016;-2.260;2023-06-26T14:14:13;4.53;;;1.20;;
59308;SDS011;48433;53.016;-2.260;2023-06-26T14:16:42;6.55;;;1.30;;
59308;SDS011;48433;53.016;-2.260;2023-06-26T14:19:10;6.53;;;1.00;;
59308;SDS011;48433;53.016;-2.260;2023-06-26T14:24:09;3.42;;;0.95;;
59308;SDS011;48433;53.016;-2.260;2023-06-26T14:26:37;4.55;;;1.10;;
59308;SDS011;48433;53.016;-2.260;2023-06-26T14:29:05;5.95;;;1.85;;
59308;SDS011;48433;53.016;-2.260;2023-06-26T14:31:34;5.72;;;1.30;;
59308;SDS011;48433;53.016;-2.260;2023-06-26T14:34:02;5.25;;;1.30;;
59308;SDS011;48433;53.016;-2.260;2023-06-26T14:36:30;5.65;;;1.38;;
59308;SDS011;48433;53.016;-2.260;2023-06-26T14:38:59;7.10;;;1.52;;
59308;SDS011;48433;53.016;-2.260;2023-06-26T14:41:27;7.72;;;1.33;;
59308;SDS011;48433;53.016;-2.260;2023-06-26T14:43:56;8.82;;;1.70;;
59308;SDS011;48433;53.016;-2.260;2023-06-26T14:46:25;6.20;;;1.50;;
59308;SDS011;48433;53.016;-2.260;2023-06-26T14:48:54;6.63;;;1.77;;
59308;SDS011;48433;53.016;-2.260;2023-06-26T14:51:22;15.30;;;5.60;;
59308;SDS011;48433;53.016;-2.260;2023-06-26T14:53:51;7.43;;;2.00;;
59308;SDS011;48433;53.016;-2.260;2023-06-26T14:56:19;8.02;;;1.83;;
59308;SDS011;48433;53.016;-2.260;2023-06-26T14:58:47;6.65;;;1.85;;
59308;SDS011;48433;53.016;-2.260;2023-06-26T15:01:15;7.00;;;1.90;;
59308;SDS011;48433;53.016;-2.260;2023-06-26T15:03:43;7.72;;;1.85;;
59308;SDS011;48433;53.016;-2.260;2023-06-26T15:06:11;5.00;;;1.27;;
59308;SDS011;48433;53.016;-2.260;2023-06-26T15:08:39;5.10;;;1.70;;
59308;SDS011;48433;53.016;-2.260;2023-06-26T15:11:07;8.43;;;1.90;;
59308;SDS011;48433;53.016;-2.260;2023-06-26T15:13:35;8.38;;;2.03;;
59308;SDS011;48433;53.016;-2.260;2023-06-26T15:16:03;7.70;;;1.50;;